createdAt,value
2022-11-12T00:01:02.057Z,16.98
2022-11-12T00:03:29.151Z,19.17
2022-11-12T00:05:56.199Z,17.85
2022-11-12T00:08:23.589Z,18.17
2022-11-12T00:10:51.055Z,23.33
2022-11-12T00:13:18.132Z,20.48
2022-11-12T00:15:47.060Z,21.60
2022-11-12T00:18:14.202Z,24.92
2022-11-12T00:20:41.583Z,20.88
2022-11-12T00:23:08.712Z,18.05
2022-11-12T00:25:36.006Z,18.50
2022-11-12T00:28:08.619Z,23.00
2022-11-12T00:30:38.910Z,18.38
2022-11-12T00:33:06.062Z,21.45
2022-11-12T00:35:34.287Z,22.73
2022-11-12T00:38:01.368Z,22.98
2022-11-12T00:40:29.268Z,16.08
2022-11-12T00:42:56.503Z,23.50
2022-11-12T00:45:23.835Z,23.05
2022-11-12T00:47:53.939Z,19.17
2022-11-12T00:50:20.994Z,26.75
2022-11-12T00:52:48.027Z,17.85
2022-11-12T00:55:15.118Z,23.35
2022-11-12T00:57:42.144Z,19.60
2022-11-12T01:00:14.906Z,25.35
2022-11-12T01:02:46.382Z,19.92
2022-11-12T01:05:17.116Z,29.33
2022-11-12T01:07:44.300Z,18.25
2022-11-12T01:10:11.995Z,18.70
2022-11-12T01:12:39.237Z,21.20
2022-11-12T01:15:07.152Z,21.20
2022-11-12T01:17:34.739Z,17.90
2022-11-12T01:20:01.768Z,23.77
2022-11-12T01:22:28.792Z,15.65
2022-11-12T01:24:56.043Z,26.63
2022-11-12T01:27:23.047Z,19.33
2022-11-12T01:29:50.044Z,25.70
2022-11-12T01:32:17.137Z,24.30
2022-11-12T01:34:44.214Z,22.17
2022-11-12T01:37:11.438Z,17.65
2022-11-12T01:39:38.453Z,24.40
2022-11-12T01:42:05.596Z,19.33
2022-11-12T01:44:35.026Z,22.83
2022-11-12T01:47:27.281Z,24.00
2022-11-12T01:49:59.232Z,20.90
2022-11-12T01:52:29.206Z,21.40
2022-11-12T01:55:05.022Z,24.35
2022-11-12T01:57:38.363Z,28.75
2022-11-12T02:00:10.515Z,18.58
2022-11-12T02:02:38.596Z,17.73
2022-11-12T02:05:09.942Z,19.02
2022-11-12T02:07:41.436Z,23.52
2022-11-12T02:12:55.558Z,26.70
2022-11-12T02:15:22.647Z,15.48
2022-11-12T02:17:49.736Z,18.02
2022-11-12T02:20:17.269Z,19.95
2022-11-12T02:22:45.489Z,19.60
2022-11-12T02:25:21.223Z,28.33
2022-11-12T02:27:52.003Z,17.60
2022-11-12T02:30:19.916Z,22.00
2022-11-12T02:32:46.928Z,21.70
2022-11-12T02:35:14.065Z,17.02
2022-11-12T02:37:41.239Z,21.60
2022-11-12T02:40:08.844Z,13.35
2022-11-12T02:42:35.836Z,26.77
2022-11-12T02:45:03.136Z,28.38
2022-11-12T02:47:30.258Z,20.38
2022-11-12T02:49:57.278Z,26.70
2022-11-12T02:52:24.363Z,19.98
2022-11-12T02:54:51.432Z,29.00
2022-11-12T02:57:18.535Z,18.67
2022-11-12T02:59:45.557Z,21.02
2022-11-12T03:02:12.610Z,21.50
2022-11-12T03:04:39.702Z,21.77
2022-11-12T03:07:06.998Z,28.13
2022-11-12T03:09:35.081Z,25.73
2022-11-12T03:12:02.106Z,18.00
2022-11-12T03:14:29.384Z,25.20
2022-11-12T03:16:56.407Z,26.80
2022-11-12T03:19:23.432Z,21.02
2022-11-12T03:21:50.726Z,17.42
2022-11-12T03:24:17.763Z,28.25
2022-11-12T03:26:44.790Z,26.13
2022-11-12T03:29:11.999Z,24.05
2022-11-12T03:31:39.499Z,30.10
2022-11-12T03:34:06.625Z,20.58
2022-11-12T03:36:33.795Z,24.83
2022-11-12T03:39:00.867Z,19.98
2022-11-12T03:41:28.081Z,24.13
2022-11-12T03:43:55.120Z,17.80
2022-11-12T03:46:22.116Z,31.70
2022-11-12T03:48:49.174Z,25.55
2022-11-12T03:51:16.580Z,23.60
2022-11-12T03:53:43.851Z,24.15
2022-11-12T03:56:10.914Z,19.92
2022-11-12T03:58:37.901Z,31.92
2022-11-12T04:01:05.018Z,21.52
2022-11-12T04:03:32.050Z,28.05
2022-11-12T04:06:17.450Z,25.23
2022-11-12T04:08:44.597Z,23.35
2022-11-12T04:11:16.694Z,20.77
2022-11-12T04:13:47.726Z,25.33
2022-11-12T04:16:36.325Z,18.75
2022-11-12T04:19:23.502Z,26.63
2022-11-12T04:21:56.852Z,19.98
2022-11-12T04:24:49.954Z,18.55
2022-11-12T04:27:18.313Z,18.85
2022-11-12T04:30:04.535Z,25.23
2022-11-12T04:32:34.243Z,19.58
2022-11-12T04:35:02.138Z,19.27
2022-11-12T04:37:44.815Z,19.42
2022-11-12T04:40:42.806Z,21.50
2022-11-12T04:43:33.886Z,24.60
2022-11-12T04:46:02.043Z,22.25
2022-11-12T04:48:29.855Z,23.40
2022-11-12T04:51:03.728Z,15.73
2022-11-12T04:53:31.320Z,29.73
2022-11-12T04:55:59.671Z,20.20
2022-11-12T04:58:27.000Z,21.85
2022-11-12T05:00:54.629Z,14.55
2022-11-12T05:03:21.728Z,24.67
2022-11-12T05:05:48.792Z,24.33
2022-11-12T05:08:16.005Z,23.98
2022-11-12T05:10:44.411Z,22.70
2022-11-12T05:13:11.411Z,26.52
2022-11-12T05:15:38.473Z,26.90
2022-11-12T05:18:05.518Z,21.15
2022-11-12T05:20:32.554Z,26.63
2022-11-12T05:23:06.611Z,25.02
2022-11-12T05:25:36.069Z,24.35
2022-11-12T05:28:03.642Z,16.48
2022-11-12T05:30:31.948Z,24.88
2022-11-12T05:32:58.980Z,21.65
2022-11-12T05:35:26.036Z,22.67
2022-11-12T05:37:53.274Z,19.33
2022-11-12T05:40:20.480Z,20.10
2022-11-12T05:42:47.497Z,30.58
2022-11-12T05:45:14.590Z,26.10
2022-11-12T05:47:41.696Z,24.48
2022-11-12T05:50:09.064Z,20.75
2022-11-12T05:52:36.415Z,18.38
2022-11-12T05:55:03.518Z,18.95
2022-11-12T05:57:30.852Z,25.83
2022-11-12T05:59:58.052Z,21.73
2022-11-12T06:02:25.121Z,22.85
2022-11-12T06:04:52.218Z,14.35
2022-11-12T06:07:19.487Z,27.30
2022-11-12T06:09:46.677Z,23.45
2022-11-12T06:12:13.730Z,17.38
2022-11-12T06:14:40.917Z,26.02
2022-11-12T06:17:07.932Z,34.35
2022-11-12T06:19:35.026Z,24.10
2022-11-12T06:22:02.085Z,28.88
2022-11-12T06:24:34.902Z,21.15
2022-11-12T06:27:02.706Z,27.05
2022-11-12T06:29:30.367Z,22.85
2022-11-12T06:31:57.552Z,26.77
2022-11-12T06:34:24.604Z,26.02
2022-11-12T06:36:51.694Z,19.35
2022-11-12T06:39:18.844Z,25.40
2022-11-12T06:41:45.931Z,20.08
2022-11-12T06:44:14.677Z,25.95
2022-11-12T06:46:44.893Z,23.65
2022-11-12T06:49:11.994Z,25.13
2022-11-12T06:51:40.113Z,35.05
2022-11-12T06:54:07.593Z,24.55
2022-11-12T06:56:35.173Z,17.70
2022-11-12T06:59:02.177Z,25.13
2022-11-12T07:01:29.480Z,18.25
2022-11-12T07:03:56.861Z,21.25
2022-11-12T07:06:23.863Z,23.63
2022-11-12T07:08:51.717Z,25.63
2022-11-12T07:11:19.881Z,19.15
2022-11-12T07:13:47.715Z,26.85
2022-11-12T07:16:18.992Z,20.42
2022-11-12T07:18:47.610Z,21.13
2022-11-12T07:21:18.285Z,12.77
2022-11-12T07:23:46.584Z,22.95
2022-11-12T07:26:17.741Z,30.25
2022-11-12T07:28:45.799Z,22.40
2022-11-12T07:31:14.308Z,25.77
2022-11-12T07:33:42.350Z,18.02
2022-11-12T07:36:14.037Z,14.50
2022-11-12T07:38:42.661Z,23.20
2022-11-12T07:41:15.060Z,18.35
2022-11-12T07:43:44.328Z,26.40
2022-11-12T07:46:23.902Z,25.27
2022-11-12T07:48:51.464Z,31.75
2022-11-12T07:51:27.801Z,25.65
2022-11-12T07:53:59.530Z,28.77
2022-11-12T07:56:28.220Z,26.92
2022-11-12T07:58:55.416Z,23.23
2022-11-12T08:01:34.088Z,22.70
2022-11-12T08:04:02.386Z,26.75
2022-11-12T08:06:30.969Z,31.42
2022-11-12T08:08:59.797Z,30.60
2022-11-12T08:11:26.996Z,26.95
2022-11-12T08:13:54.078Z,25.25
2022-11-12T08:16:21.298Z,26.80
2022-11-12T08:18:48.616Z,24.10
2022-11-12T08:21:17.308Z,32.72
2022-11-12T08:23:44.783Z,28.30
2022-11-12T08:26:14.297Z,21.98
2022-11-12T08:28:42.072Z,24.10
2022-11-12T08:31:20.127Z,23.70
2022-11-12T08:33:47.326Z,22.83
2022-11-12T08:36:16.712Z,26.55
2022-11-12T08:38:43.985Z,27.45
2022-11-12T08:41:12.908Z,28.35
2022-11-12T08:43:41.355Z,22.40
2022-11-12T08:46:08.853Z,23.33
2022-11-12T08:48:36.965Z,29.23
2022-11-12T08:51:05.593Z,32.90
2022-11-12T08:53:33.089Z,27.50
2022-11-12T08:56:00.462Z,25.05
2022-11-12T08:58:28.334Z,25.13
2022-11-12T09:00:56.317Z,21.35
2022-11-12T09:03:25.784Z,29.52
2022-11-12T09:05:53.772Z,26.85
2022-11-12T09:08:23.762Z,28.45
2022-11-12T09:10:52.041Z,33.70
2022-11-12T09:13:19.743Z,27.30
2022-11-12T09:15:47.541Z,35.50
2022-11-12T09:18:16.981Z,29.17
2022-11-12T09:20:44.140Z,33.67
2022-11-12T09:23:16.533Z,35.28
2022-11-12T09:25:44.236Z,24.48
2022-11-12T09:28:15.623Z,31.35
2022-11-12T09:30:46.775Z,29.02
2022-11-12T09:33:30.037Z,29.40
2022-11-12T09:36:00.511Z,32.67
2022-11-12T09:38:27.965Z,34.05
2022-11-12T09:41:14.162Z,27.63
2022-11-12T09:43:49.607Z,36.15
2022-11-12T09:46:44.968Z,30.30
2022-11-12T09:49:27.730Z,26.27
2022-11-12T09:52:01.640Z,31.20
2022-11-12T09:54:31.940Z,26.50
2022-11-12T09:56:59.113Z,26.67
2022-11-12T09:59:34.818Z,26.85
2022-11-12T10:02:35.692Z,26.30
2022-11-12T10:05:22.587Z,30.40
2022-11-12T10:08:18.851Z,26.75
2022-11-12T10:11:08.062Z,26.17
2022-11-12T10:14:06.597Z,27.75
2022-11-12T10:16:45.735Z,17.10
2022-11-12T10:19:23.386Z,38.78
2022-11-12T10:22:28.037Z,31.80
2022-11-12T10:24:55.783Z,35.90
2022-11-12T10:27:27.587Z,24.25
2022-11-12T10:30:04.223Z,39.17
2022-11-12T10:32:31.308Z,30.48
2022-11-12T10:34:58.393Z,29.15
2022-11-12T10:37:43.018Z,25.75
2022-11-12T10:40:24.980Z,32.40
2022-11-12T10:43:03.637Z,30.48
2022-11-12T10:45:31.847Z,29.83
2022-11-12T10:47:59.712Z,27.90
2022-11-12T10:50:36.767Z,34.72
2022-11-12T10:53:10.701Z,35.17
2022-11-12T10:56:01.756Z,33.47
2022-11-12T10:58:29.155Z,27.25
2022-11-12T11:01:05.350Z,30.38
2022-11-12T11:03:44.579Z,22.58
2022-11-12T11:06:14.869Z,23.77
2022-11-12T11:08:45.157Z,32.28
2022-11-12T11:11:28.691Z,29.73
2022-11-12T11:13:58.851Z,35.13
2022-11-12T11:16:27.898Z,28.25
2022-11-12T11:19:05.339Z,38.67
2022-11-12T11:22:06.988Z,27.83
2022-11-12T11:24:45.137Z,27.08
2022-11-12T11:27:12.098Z,31.98
2022-11-12T11:29:51.070Z,34.53
2022-11-12T11:32:27.028Z,31.20
2022-11-12T11:35:45.344Z,34.22
2022-11-12T11:38:34.979Z,23.75
2022-11-12T11:41:17.076Z,36.17
2022-11-12T11:43:56.384Z,30.42
2022-11-12T11:46:48.143Z,25.20
2022-11-12T11:52:09.341Z,26.00
2022-11-12T11:55:14.157Z,27.30
2022-11-12T11:58:11.375Z,27.38
2022-11-12T12:01:04.820Z,22.75
2022-11-12T12:03:46.936Z,27.17
2022-11-12T12:06:17.078Z,19.23
2022-11-12T12:09:03.061Z,20.63
2022-11-12T12:11:34.964Z,31.13
2022-11-12T12:14:18.717Z,28.02
2022-11-12T12:16:51.722Z,27.58
2022-11-12T12:19:49.392Z,18.58
2022-11-12T12:22:23.940Z,23.05
2022-11-12T12:24:56.220Z,31.35
2022-11-12T12:27:37.033Z,25.27
2022-11-12T12:30:14.327Z,18.75
2022-11-12T12:32:57.196Z,19.80
2022-11-12T12:35:30.424Z,26.02
2022-11-12T12:38:11.477Z,20.63
2022-11-12T12:40:51.954Z,28.88
2022-11-12T12:43:46.157Z,32.30
2022-11-12T12:46:15.814Z,27.13
2022-11-12T12:48:46.510Z,26.55
2022-11-12T12:51:13.921Z,22.88
2022-11-12T12:53:40.957Z,24.15
2022-11-12T12:56:30.518Z,15.95
2022-11-12T12:59:03.881Z,31.55
2022-11-12T13:01:35.192Z,18.77
2022-11-12T13:04:12.056Z,29.50
2022-11-12T13:06:46.742Z,14.07
2022-11-12T13:09:15.054Z,29.80
2022-11-12T13:12:00.489Z,20.38
2022-11-12T13:14:36.990Z,25.02
2022-11-12T13:17:04.010Z,26.17
2022-11-12T13:19:35.134Z,26.52
2022-11-12T13:22:20.403Z,22.08
2022-11-12T13:25:07.055Z,21.85
2022-11-12T13:27:46.066Z,27.23
2022-11-12T13:30:21.016Z,26.63
2022-11-12T13:32:48.056Z,18.52
2022-11-12T13:35:22.660Z,23.50
2022-11-12T13:38:17.152Z,19.77
2022-11-12T13:41:05.455Z,17.15
2022-11-12T13:43:43.056Z,23.83
2022-11-12T13:46:10.867Z,19.90
2022-11-12T13:48:42.911Z,23.23
2022-11-12T13:51:48.385Z,16.00
2022-11-12T13:54:38.524Z,18.83
2022-11-12T13:57:24.878Z,19.95
2022-11-12T14:00:22.569Z,16.08
2022-11-12T14:02:54.792Z,11.88
2022-11-12T14:05:28.045Z,24.95
2022-11-12T14:08:22.958Z,14.98
2022-11-12T14:11:11.548Z,21.00
2022-11-12T14:14:04.551Z,21.45
2022-11-12T14:16:43.482Z,17.75
2022-11-12T14:19:13.941Z,16.55
2022-11-12T14:21:41.011Z,25.10
2022-11-12T14:24:13.391Z,19.92
2022-11-12T14:26:43.004Z,21.58
2022-11-12T14:29:19.917Z,20.98
2022-11-12T14:31:47.503Z,21.95
2022-11-12T14:34:30.615Z,23.35
2022-11-12T14:36:58.078Z,15.00
2022-11-12T14:39:27.644Z,16.75
2022-11-12T14:41:57.566Z,16.10
2022-11-12T14:44:36.210Z,17.65
2022-11-12T14:47:04.008Z,22.13
2022-11-12T14:49:45.582Z,16.50
2022-11-12T14:54:50.645Z,16.05
2022-11-12T14:57:29.150Z,17.05
2022-11-12T14:59:56.833Z,14.57
2022-11-12T15:02:49.807Z,18.00
2022-11-12T15:05:21.391Z,13.48
2022-11-12T15:07:51.538Z,19.23
2022-11-12T15:10:36.511Z,21.60
2022-11-12T15:13:08.612Z,21.48
2022-11-12T15:15:39.364Z,19.50
2022-11-12T15:18:14.670Z,24.50
2022-11-12T15:20:43.182Z,19.05
2022-11-12T15:23:20.110Z,12.88
2022-11-12T15:25:59.171Z,14.25
2022-11-12T15:28:27.264Z,14.73
2022-11-12T15:31:15.960Z,15.93
2022-11-12T15:33:43.311Z,18.58
2022-11-12T15:36:21.784Z,17.48
2022-11-12T15:38:54.369Z,20.25
2022-11-12T15:41:29.545Z,15.93
2022-11-12T15:43:57.278Z,11.70
2022-11-12T15:46:24.385Z,19.88
2022-11-12T15:48:55.836Z,23.00
2022-11-12T15:51:23.889Z,22.80
2022-11-12T15:53:51.102Z,18.30
2022-11-12T15:56:22.163Z,14.32
2022-11-12T15:58:49.276Z,16.65
2022-11-12T16:01:16.413Z,21.92
2022-11-12T16:03:43.516Z,17.38
2022-11-12T16:06:12.322Z,14.73
2022-11-12T16:08:39.420Z,16.02
2022-11-12T16:11:26.662Z,18.30
2022-11-12T16:13:53.743Z,17.13
2022-11-12T16:16:20.760Z,17.13
2022-11-12T16:18:47.982Z,19.52
2022-11-12T16:21:20.511Z,14.07
2022-11-12T16:23:48.043Z,17.00
2022-11-12T16:26:23.800Z,11.27
2022-11-12T16:28:51.032Z,11.18
2022-11-12T16:31:20.001Z,14.60
2022-11-12T16:33:47.061Z,13.48
2022-11-12T16:36:15.710Z,10.52
2022-11-12T16:38:42.845Z,13.80
2022-11-12T16:41:12.135Z,18.63
2022-11-12T16:43:40.023Z,13.90
2022-11-12T16:46:26.332Z,14.90
2022-11-12T16:48:54.029Z,19.05
2022-11-12T16:51:22.541Z,16.17
2022-11-12T16:53:49.592Z,13.02
2022-11-12T16:56:21.398Z,16.60
2022-11-12T16:58:49.937Z,14.82
2022-11-12T17:01:28.653Z,19.60
2022-11-12T17:03:57.585Z,15.45
2022-11-12T17:06:34.001Z,14.70
2022-11-12T17:09:01.232Z,16.20
2022-11-12T17:11:28.264Z,23.75
2022-11-12T17:13:55.333Z,16.15
2022-11-12T17:16:22.645Z,20.08
2022-11-12T17:18:53.665Z,12.55
2022-11-12T17:21:21.091Z,18.77
2022-11-12T17:23:48.388Z,13.68
2022-11-12T17:26:18.155Z,15.35
2022-11-12T17:28:46.096Z,16.15
2022-11-12T17:31:22.736Z,15.13
2022-11-12T17:33:52.031Z,15.93
2022-11-12T17:36:25.403Z,16.30
2022-11-12T17:38:56.770Z,13.43
2022-11-12T17:41:24.487Z,12.40
2022-11-12T17:43:59.619Z,11.85
2022-11-12T17:46:27.198Z,23.85
2022-11-12T17:48:55.721Z,16.92
2022-11-12T17:51:25.547Z,11.13
2022-11-12T17:53:53.835Z,18.67
2022-11-12T17:56:23.429Z,11.90
2022-11-12T17:58:51.415Z,15.98
2022-11-12T18:01:25.165Z,16.60
2022-11-12T18:03:54.621Z,15.98
2022-11-12T18:06:24.663Z,11.95
2022-11-12T18:08:59.638Z,14.20
2022-11-12T18:11:28.742Z,19.15
2022-11-12T18:13:56.954Z,14.70
2022-11-12T18:16:29.468Z,14.98
2022-11-12T18:18:57.681Z,11.07
2022-11-12T18:21:26.143Z,14.35
2022-11-12T18:23:54.169Z,13.85
2022-11-12T18:26:21.688Z,14.88
2022-11-12T18:28:56.194Z,15.85
2022-11-12T18:31:24.767Z,16.83
2022-11-12T18:33:52.070Z,16.15
2022-11-12T18:36:24.902Z,17.30
2022-11-12T18:38:53.492Z,24.85
2022-11-12T18:41:27.184Z,17.25
2022-11-12T18:43:55.441Z,13.27
2022-11-12T18:46:23.364Z,13.35
2022-11-12T18:48:51.218Z,15.25
2022-11-12T18:51:19.584Z,13.25
2022-11-12T18:53:47.324Z,17.10
2022-11-12T18:56:20.804Z,16.17
2022-11-12T18:58:48.332Z,17.02
2022-11-12T19:01:18.528Z,9.13
2022-11-12T19:03:45.605Z,12.38
2022-11-12T19:06:14.101Z,10.65
2022-11-12T19:08:41.650Z,17.05
2022-11-12T19:11:14.413Z,17.13
2022-11-12T19:13:42.619Z,9.65
2022-11-12T19:16:12.765Z,17.80
2022-11-12T19:18:41.689Z,10.95
2022-11-12T19:21:11.070Z,13.18
2022-11-12T19:23:39.031Z,11.05
2022-11-12T19:26:08.686Z,11.02
2022-11-12T19:28:36.057Z,11.95
2022-11-12T19:31:08.152Z,13.27
2022-11-12T19:33:35.582Z,12.95
2022-11-12T19:36:07.667Z,13.25
2022-11-12T19:38:35.018Z,9.80
2022-11-12T19:41:14.701Z,20.08
2022-11-12T19:43:45.097Z,10.13
2022-11-12T19:46:12.430Z,15.00
2022-11-12T19:48:39.854Z,13.65
2022-11-12T19:51:09.314Z,10.65
2022-11-12T19:53:41.199Z,10.35
2022-11-12T19:56:08.801Z,12.27
2022-11-12T19:58:35.850Z,12.05
2022-11-12T20:01:08.363Z,13.27
2022-11-12T20:03:36.657Z,18.63
2022-11-12T20:06:08.987Z,15.80
2022-11-12T20:08:36.796Z,8.05
2022-11-12T20:11:04.866Z,11.63
2022-11-12T20:13:32.294Z,13.40
2022-11-12T20:15:59.599Z,10.75
2022-11-12T20:18:27.309Z,10.82
2022-11-12T20:20:57.473Z,8.95
2022-11-12T20:23:25.474Z,11.27
2022-11-12T20:25:53.465Z,13.75
2022-11-12T20:28:20.890Z,15.63
2022-11-12T20:30:48.051Z,10.85
2022-11-12T20:33:15.197Z,10.25
2022-11-12T20:35:42.324Z,13.55
2022-11-12T20:38:09.617Z,9.48
2022-11-12T20:40:36.707Z,16.33
2022-11-12T20:43:04.068Z,10.90
2022-11-12T20:45:31.114Z,11.32
2022-11-12T20:47:58.218Z,11.38
2022-11-12T20:50:25.523Z,9.93
2022-11-12T20:52:52.539Z,11.23
2022-11-12T20:55:19.650Z,10.90
2022-11-12T20:57:46.790Z,9.50
2022-11-12T21:00:17.748Z,12.05
2022-11-12T21:02:47.536Z,10.52
2022-11-12T21:05:14.799Z,8.63
2022-11-12T21:07:41.984Z,9.07
2022-11-12T21:10:10.207Z,12.50
2022-11-12T21:12:37.851Z,6.70
2022-11-12T21:15:05.850Z,10.48
2022-11-12T21:17:33.070Z,11.23
2022-11-12T21:20:00.462Z,6.35
2022-11-12T21:22:27.683Z,7.53
2022-11-12T21:24:55.095Z,15.27
2022-11-12T21:27:22.907Z,10.35
2022-11-12T21:29:50.293Z,9.48
2022-11-12T21:32:19.871Z,7.82
2022-11-12T21:34:47.458Z,9.40
2022-11-12T21:37:15.114Z,7.07
2022-11-12T21:39:43.321Z,10.68
2022-11-12T21:42:12.037Z,11.35
2022-11-12T21:44:46.636Z,6.68
2022-11-12T21:47:14.126Z,7.75
2022-11-12T21:49:41.456Z,9.23
2022-11-12T21:52:11.490Z,7.25
2022-11-12T21:54:41.667Z,7.78
2022-11-12T21:57:14.812Z,4.85
2022-11-12T21:59:45.064Z,8.70
2022-11-12T22:02:12.895Z,6.18
2022-11-12T22:04:40.599Z,6.70
2022-11-12T22:07:09.159Z,8.50
2022-11-12T22:09:36.430Z,7.70
2022-11-12T22:12:03.841Z,5.53
2022-11-12T22:14:31.096Z,9.18
2022-11-12T22:16:58.619Z,7.43
2022-11-12T22:19:25.658Z,10.73
2022-11-12T22:21:52.798Z,9.25
2022-11-12T22:24:19.960Z,7.60
2022-11-12T22:26:47.079Z,6.43
2022-11-12T22:29:14.317Z,10.60
2022-11-12T22:31:41.370Z,9.60
2022-11-12T22:34:09.702Z,5.20
2022-11-12T22:36:36.869Z,7.38
2022-11-12T22:39:05.175Z,11.38
2022-11-12T22:41:32.925Z,6.95
2022-11-12T22:44:02.335Z,12.70
2022-11-12T22:46:35.104Z,10.25
2022-11-12T22:49:03.619Z,10.90
2022-11-12T22:51:32.345Z,8.30
2022-11-12T22:54:01.784Z,8.80
2022-11-12T22:56:29.523Z,7.63
2022-11-12T22:58:58.194Z,10.13
2022-11-12T23:01:34.204Z,13.07
2022-11-12T23:04:03.596Z,4.82
2022-11-12T23:06:31.946Z,7.03
2022-11-12T23:09:00.315Z,12.93
2022-11-12T23:11:27.851Z,6.60
2022-11-12T23:13:55.883Z,7.93
2022-11-12T23:16:32.249Z,9.85
2022-11-12T23:18:59.944Z,9.00
2022-11-12T23:21:29.267Z,6.88
2022-11-12T23:24:00.137Z,8.23
2022-11-12T23:26:31.175Z,5.82
2022-11-12T23:28:58.368Z,7.88
2022-11-12T23:31:28.428Z,9.27
2022-11-12T23:33:57.364Z,7.72
2022-11-12T23:36:25.963Z,11.30
2022-11-12T23:38:53.631Z,8.25
2022-11-12T23:41:23.321Z,7.38
2022-11-12T23:43:50.743Z,8.80
2022-11-12T23:46:17.787Z,7.57
2022-11-12T23:48:44.927Z,8.02
2022-11-12T23:51:17.759Z,8.10
2022-11-12T23:53:45.672Z,7.82
2022-11-12T23:56:15.067Z,10.32
2022-11-12T23:58:42.412Z,5.60
